createdAt,value
2022-12-25T00:01:16.771Z,14.82
2022-12-25T00:03:43.212Z,14.25
2022-12-25T00:06:09.723Z,15.07
2022-12-25T00:08:36.722Z,14.43
2022-12-25T00:11:04.669Z,14.13
2022-12-25T00:13:31.344Z,14.80
2022-12-25T00:15:57.967Z,14.73
2022-12-25T00:18:24.735Z,14.93
2022-12-25T00:20:58.397Z,13.95
2022-12-25T00:23:24.848Z,13.95
2022-12-25T00:25:51.640Z,12.80
2022-12-25T00:28:18.197Z,13.75
2022-12-25T00:30:44.622Z,14.02
2022-12-25T00:33:11.076Z,14.43
2022-12-25T00:35:37.543Z,15.00
2022-12-25T00:38:03.941Z,13.88
2022-12-25T00:40:32.591Z,13.82
2022-12-25T00:42:58.949Z,13.73
2022-12-25T00:45:25.385Z,13.45
2022-12-25T00:47:51.737Z,13.68
2022-12-25T00:50:18.157Z,12.90
2022-12-25T00:52:44.505Z,12.73
2022-12-25T00:55:10.933Z,13.50
2022-12-25T00:57:37.394Z,13.40
2022-12-25T01:00:04.190Z,14.27
2022-12-25T01:02:30.671Z,13.02
2022-12-25T01:04:57.296Z,12.63
2022-12-25T01:07:24.771Z,12.80
2022-12-25T01:10:09.644Z,13.13
2022-12-25T01:12:38.588Z,12.95
2022-12-25T01:15:07.282Z,13.52
2022-12-25T01:17:34.055Z,13.43
2022-12-25T01:20:00.471Z,12.77
2022-12-25T01:22:26.870Z,13.02
2022-12-25T01:24:53.260Z,13.60
2022-12-25T01:27:19.604Z,11.77
2022-12-25T01:29:46.536Z,11.68
2022-12-25T01:32:12.985Z,12.32
2022-12-25T01:34:39.374Z,12.65
2022-12-25T01:37:08.879Z,12.15
2022-12-25T01:39:35.172Z,11.63
2022-12-25T01:42:01.536Z,13.93
2022-12-25T01:44:37.073Z,12.05
2022-12-25T01:47:04.034Z,11.30
2022-12-25T01:49:31.370Z,11.43
2022-12-25T01:52:02.597Z,11.68
2022-12-25T01:54:30.716Z,11.35
2022-12-25T01:56:58.588Z,11.90
2022-12-25T01:59:25.948Z,11.07
2022-12-25T02:01:52.557Z,10.95
2022-12-25T02:04:21.903Z,11.13
2022-12-25T02:06:49.832Z,11.57
2022-12-25T02:09:16.310Z,10.82
2022-12-25T02:11:57.758Z,11.13
2022-12-25T02:14:25.588Z,9.90
2022-12-25T02:16:57.982Z,10.38
2022-12-25T02:19:39.909Z,11.02
2022-12-25T02:22:06.210Z,9.90
2022-12-25T02:24:44.914Z,10.18
2022-12-25T02:27:16.117Z,11.70
2022-12-25T02:29:59.621Z,10.35
2022-12-25T02:32:33.054Z,11.52
2022-12-25T02:35:22.450Z,9.82
2022-12-25T02:37:55.680Z,10.68
2022-12-25T02:40:30.524Z,9.95
2022-12-25T02:43:20.854Z,10.73
2022-12-25T02:46:09.207Z,10.88
2022-12-25T02:48:57.011Z,10.68
2022-12-25T02:51:44.318Z,10.20
2022-12-25T02:54:31.439Z,10.73
2022-12-25T02:57:17.668Z,10.90
2022-12-25T03:00:05.788Z,10.45
2022-12-25T03:02:51.628Z,11.88
2022-12-25T03:05:39.327Z,11.93
2022-12-25T03:08:07.685Z,10.77
2022-12-25T03:10:55.657Z,11.23
2022-12-25T03:13:24.385Z,11.30
2022-12-25T03:16:09.665Z,11.45
2022-12-25T03:18:36.131Z,11.27
2022-12-25T03:21:21.201Z,13.85
2022-12-25T03:24:09.507Z,12.40
2022-12-25T03:26:54.278Z,12.00
2022-12-25T03:29:49.861Z,13.05
2022-12-25T03:32:16.187Z,11.32
2022-12-25T03:35:01.344Z,12.25
2022-12-25T03:37:44.154Z,11.65
2022-12-25T03:40:40.247Z,12.43
2022-12-25T03:43:37.638Z,11.27
2022-12-25T03:46:24.302Z,12.63
2022-12-25T03:49:11.989Z,11.63
2022-12-25T03:51:57.790Z,11.65
2022-12-25T03:54:45.650Z,12.57
2022-12-25T03:57:31.974Z,10.48
2022-12-25T04:00:16.919Z,10.68
2022-12-25T04:03:01.810Z,10.88
2022-12-25T04:05:46.815Z,11.30
2022-12-25T04:08:31.907Z,9.98
2022-12-25T04:11:33.482Z,10.23
2022-12-25T04:14:18.506Z,9.80
2022-12-25T04:17:03.365Z,10.52
2022-12-25T04:19:48.218Z,9.02
2022-12-25T04:22:33.113Z,9.63
2022-12-25T04:25:17.898Z,10.18
2022-12-25T04:28:02.884Z,9.65
2022-12-25T04:30:47.984Z,9.07
2022-12-25T04:33:49.863Z,9.93
2022-12-25T04:36:16.231Z,9.85
2022-12-25T04:38:42.803Z,9.00
2022-12-25T04:41:11.071Z,10.55
2022-12-25T04:43:37.591Z,9.70
2022-12-25T04:46:04.163Z,10.02
2022-12-25T04:48:32.384Z,9.43
2022-12-25T04:50:58.944Z,8.98
2022-12-25T04:53:25.273Z,8.93
2022-12-25T04:56:00.356Z,9.48
2022-12-25T04:58:26.702Z,9.43
2022-12-25T05:00:53.133Z,9.00
2022-12-25T05:03:19.488Z,8.27
2022-12-25T05:05:45.912Z,8.85
2022-12-25T05:08:12.331Z,8.75
2022-12-25T05:10:40.130Z,8.20
2022-12-25T05:13:06.557Z,8.88
2022-12-25T05:15:32.917Z,8.35
2022-12-25T05:17:59.442Z,8.90
2022-12-25T05:20:25.887Z,9.07
2022-12-25T05:22:52.246Z,10.05
2022-12-25T05:25:18.720Z,9.23
2022-12-25T05:27:48.824Z,9.40
2022-12-25T05:30:20.094Z,8.73
2022-12-25T05:32:47.429Z,8.90
2022-12-25T05:35:14.311Z,9.13
2022-12-25T05:37:40.683Z,8.45
2022-12-25T05:40:07.447Z,8.90
2022-12-25T05:42:34.180Z,8.32
2022-12-25T05:45:00.472Z,8.25
2022-12-25T05:47:26.876Z,8.00
2022-12-25T05:49:53.289Z,8.48
2022-12-25T05:52:19.645Z,7.72
2022-12-25T05:54:45.996Z,8.15
2022-12-25T05:57:12.295Z,8.15
2022-12-25T05:59:38.626Z,8.77
2022-12-25T06:02:05.108Z,8.32
2022-12-25T06:04:34.415Z,8.43
2022-12-25T06:07:00.752Z,8.40
2022-12-25T06:09:27.052Z,9.23
2022-12-25T06:11:53.502Z,8.10
2022-12-25T06:14:19.993Z,8.18
2022-12-25T06:16:46.478Z,8.20
2022-12-25T06:19:12.843Z,8.10
2022-12-25T06:21:39.205Z,7.80
2022-12-25T06:24:05.823Z,8.02
2022-12-25T06:26:32.287Z,7.97
2022-12-25T06:28:58.592Z,7.43
2022-12-25T06:31:25.001Z,7.72
2022-12-25T06:33:51.516Z,8.45
2022-12-25T06:36:22.597Z,8.57
2022-12-25T06:38:49.180Z,7.85
2022-12-25T06:41:17.287Z,7.85
2022-12-25T06:43:43.932Z,8.35
2022-12-25T06:46:12.206Z,8.00
2022-12-25T06:48:39.324Z,7.70
2022-12-25T06:51:06.295Z,8.23
2022-12-25T06:53:39.647Z,7.05
2022-12-25T06:56:07.183Z,7.68
2022-12-25T06:58:33.509Z,7.60
2022-12-25T07:01:00.140Z,7.97
2022-12-25T07:03:28.686Z,6.90
2022-12-25T07:05:55.061Z,6.65
2022-12-25T07:08:21.414Z,7.38
2022-12-25T07:10:47.772Z,8.13
2022-12-25T07:13:14.085Z,7.72
2022-12-25T07:15:40.503Z,7.25
2022-12-25T07:18:08.231Z,7.03
2022-12-25T07:20:37.646Z,7.63
2022-12-25T07:23:04.004Z,6.90
2022-12-25T07:25:36.825Z,6.80
2022-12-25T07:28:03.659Z,6.72
2022-12-25T07:30:30.003Z,7.05
2022-12-25T07:32:56.753Z,6.35
2022-12-25T07:35:23.057Z,6.90
2022-12-25T07:37:50.667Z,7.45
2022-12-25T07:40:19.614Z,6.93
2022-12-25T07:42:45.921Z,6.95
2022-12-25T07:45:12.364Z,7.53
2022-12-25T07:47:38.716Z,8.30
2022-12-25T07:50:05.553Z,8.30
2022-12-25T07:52:33.458Z,6.03
2022-12-25T07:55:03.077Z,6.30
2022-12-25T07:57:29.840Z,6.25
2022-12-25T07:59:56.291Z,7.45
2022-12-25T08:02:28.666Z,7.03
2022-12-25T08:04:55.668Z,7.10
2022-12-25T08:07:22.114Z,6.53
2022-12-25T08:09:48.503Z,7.05
2022-12-25T08:12:15.016Z,6.20
2022-12-25T08:14:41.393Z,6.43
2022-12-25T08:17:08.037Z,6.70
2022-12-25T08:19:36.708Z,6.18
2022-12-25T08:22:03.039Z,6.53
2022-12-25T08:24:29.342Z,6.78
2022-12-25T08:26:55.608Z,6.63
2022-12-25T08:29:22.155Z,6.65
2022-12-25T08:31:48.414Z,6.85
2022-12-25T08:34:14.979Z,5.93
2022-12-25T08:36:41.688Z,6.35
2022-12-25T08:39:08.142Z,6.47
2022-12-25T08:41:36.530Z,6.75
2022-12-25T08:44:03.715Z,7.25
2022-12-25T08:46:30.068Z,6.68
2022-12-25T08:48:56.885Z,6.40
2022-12-25T08:51:24.647Z,5.70
2022-12-25T08:53:51.646Z,6.32
2022-12-25T08:56:18.475Z,5.88
2022-12-25T08:58:45.180Z,5.75
2022-12-25T09:01:12.013Z,6.00
2022-12-25T09:03:38.421Z,5.97
2022-12-25T09:06:09.115Z,6.05
2022-12-25T09:08:36.167Z,5.60
2022-12-25T09:11:06.423Z,5.88
2022-12-25T09:13:33.008Z,5.80
2022-12-25T09:15:59.631Z,5.55
2022-12-25T09:18:26.325Z,6.10
2022-12-25T09:21:01.919Z,5.43
2022-12-25T09:23:28.467Z,6.20
2022-12-25T09:25:54.893Z,5.85
2022-12-25T09:28:21.421Z,6.03
2022-12-25T09:30:50.645Z,6.32
2022-12-25T09:33:17.206Z,6.10
2022-12-25T09:35:56.588Z,5.80
2022-12-25T09:38:23.307Z,7.28
2022-12-25T09:40:57.760Z,8.00
2022-12-25T09:43:25.976Z,8.45
2022-12-25T09:45:52.501Z,8.23
2022-12-25T09:48:18.952Z,7.93
2022-12-25T09:51:09.627Z,6.93
2022-12-25T09:53:40.367Z,8.30
2022-12-25T09:56:16.695Z,8.02
2022-12-25T09:58:43.266Z,7.53
2022-12-25T10:01:12.600Z,7.70
2022-12-25T10:03:49.704Z,7.22
2022-12-25T10:06:15.967Z,6.35
2022-12-25T10:09:00.903Z,7.93
2022-12-25T10:11:46.176Z,7.03
2022-12-25T10:14:20.715Z,7.45
2022-12-25T10:16:49.790Z,14.05
2022-12-25T10:19:16.141Z,8.70
2022-12-25T10:21:42.523Z,8.90
2022-12-25T10:24:14.966Z,8.07
2022-12-25T10:26:41.926Z,8.13
2022-12-25T10:29:15.895Z,7.93
2022-12-25T10:31:45.347Z,7.53
2022-12-25T10:34:12.807Z,7.80
2022-12-25T10:36:39.525Z,9.02
2022-12-25T10:39:05.987Z,9.65
2022-12-25T10:41:51.199Z,11.20
2022-12-25T10:44:21.884Z,11.90
2022-12-25T10:46:52.091Z,10.40
2022-12-25T10:49:20.872Z,11.50
2022-12-25T10:51:47.304Z,11.98
2022-12-25T10:54:31.058Z,14.05
2022-12-25T10:57:01.921Z,12.52
2022-12-25T11:01:57.909Z,11.55
2022-12-25T11:04:28.732Z,17.27
2022-12-25T11:09:21.390Z,20.42
2022-12-25T11:11:48.223Z,25.98
2022-12-25T11:14:20.653Z,25.55
2022-12-25T11:16:47.253Z,16.90
2022-12-25T11:19:28.199Z,13.27
2022-12-25T11:24:37.627Z,8.57
2022-12-25T11:27:06.040Z,8.43
2022-12-25T11:29:32.404Z,8.02
2022-12-25T11:31:59.959Z,10.43
2022-12-25T11:34:29.097Z,9.10
2022-12-25T11:36:55.646Z,8.30
2022-12-25T11:39:22.061Z,9.77
2022-12-25T11:41:50.443Z,9.57
2022-12-25T11:44:36.990Z,8.68
2022-12-25T11:47:12.702Z,8.82
2022-12-25T11:49:49.667Z,10.15
2022-12-25T11:52:17.331Z,8.88
2022-12-25T11:54:53.308Z,7.70
2022-12-25T11:57:20.358Z,8.68
2022-12-25T11:59:53.177Z,8.70
2022-12-25T12:02:22.684Z,8.75
2022-12-25T12:04:50.914Z,8.20
2022-12-25T12:07:21.598Z,8.48
2022-12-25T12:09:53.732Z,8.02
2022-12-25T12:12:29.554Z,8.77
2022-12-25T12:15:00.582Z,7.38
2022-12-25T12:17:26.995Z,7.70
2022-12-25T12:19:53.256Z,9.40
2022-12-25T12:22:23.931Z,9.48
2022-12-25T12:24:54.314Z,9.40
2022-12-25T12:27:23.368Z,8.50
2022-12-25T12:29:50.883Z,10.80
2022-12-25T12:32:25.179Z,8.48
2022-12-25T12:34:51.539Z,8.82
2022-12-25T12:37:24.778Z,10.00
2022-12-25T12:39:52.788Z,16.05
2022-12-25T12:42:21.989Z,17.55
2022-12-25T12:44:49.668Z,15.52
2022-12-25T12:47:32.329Z,14.82
2022-12-25T12:50:02.651Z,87.97
2022-12-25T12:52:33.673Z,75.55
2022-12-25T12:55:06.644Z,31.48
2022-12-25T12:57:41.650Z,27.08
2022-12-25T13:00:16.778Z,21.70
2022-12-25T13:02:45.244Z,13.50
2022-12-25T13:05:16.016Z,11.07
2022-12-25T13:10:34.096Z,12.57
2022-12-25T13:13:08.251Z,12.30
2022-12-25T13:15:46.504Z,12.20
2022-12-25T13:18:34.338Z,12.18
2022-12-25T13:21:08.095Z,12.63
2022-12-25T13:23:44.590Z,12.55
2022-12-25T13:26:20.786Z,12.20
2022-12-25T13:28:47.782Z,12.30
2022-12-25T13:31:30.402Z,13.30
2022-12-25T13:34:12.898Z,13.27
2022-12-25T13:36:40.429Z,13.95
2022-12-25T13:39:08.030Z,12.77
2022-12-25T13:42:02.652Z,12.63
2022-12-25T13:44:32.996Z,11.27
2022-12-25T13:47:18.493Z,10.75
2022-12-25T13:49:45.654Z,10.70
2022-12-25T13:52:13.560Z,11.45
2022-12-25T13:54:50.853Z,10.95
2022-12-25T13:57:17.837Z,12.60
2022-12-25T13:59:44.348Z,12.60
2022-12-25T14:02:20.935Z,11.32
2022-12-25T14:04:47.459Z,11.07
2022-12-25T14:07:18.418Z,10.80
2022-12-25T14:09:44.843Z,10.85
2022-12-25T14:12:17.334Z,10.18
2022-12-25T14:14:45.941Z,10.25
2022-12-25T14:17:12.399Z,10.48
2022-12-25T14:19:38.742Z,11.35
2022-12-25T14:22:29.438Z,11.60
2022-12-25T14:27:24.797Z,10.73
2022-12-25T14:29:52.148Z,10.70
2022-12-25T14:32:22.829Z,11.05
2022-12-25T14:34:51.512Z,11.32
2022-12-25T14:37:21.982Z,10.98
2022-12-25T14:39:59.037Z,11.32
2022-12-25T14:42:27.722Z,11.38
2022-12-25T14:45:06.722Z,11.65
2022-12-25T14:47:39.079Z,11.95
2022-12-25T14:50:15.888Z,11.10
2022-12-25T14:53:08.691Z,11.73
2022-12-25T14:55:35.405Z,11.10
2022-12-25T14:58:06.185Z,14.60
2022-12-25T15:00:35.463Z,12.85
2022-12-25T15:03:03.507Z,13.43
2022-12-25T15:05:32.050Z,12.65
2022-12-25T15:08:13.867Z,13.60
2022-12-25T15:13:27.820Z,11.73
2022-12-25T15:15:59.425Z,11.45
2022-12-25T15:18:27.653Z,10.90
2022-12-25T15:21:06.050Z,10.80
2022-12-25T15:23:32.527Z,11.13
2022-12-25T15:25:58.985Z,11.77
2022-12-25T15:28:25.420Z,10.65
2022-12-25T15:30:51.969Z,11.65
2022-12-25T15:33:18.963Z,10.70
2022-12-25T15:35:45.637Z,11.60
2022-12-25T15:38:12.652Z,10.88
2022-12-25T15:40:39.609Z,12.02
2022-12-25T15:43:11.472Z,11.80
2022-12-25T15:45:48.863Z,11.07
2022-12-25T15:48:15.416Z,10.68
2022-12-25T15:50:42.319Z,10.43
2022-12-25T15:53:09.987Z,10.23
2022-12-25T15:55:36.945Z,12.63
2022-12-25T15:58:03.318Z,12.25
2022-12-25T16:00:29.807Z,11.95
2022-12-25T16:02:57.003Z,11.07
2022-12-25T16:05:23.591Z,11.00
2022-12-25T16:07:49.912Z,12.02
2022-12-25T16:10:18.288Z,11.88
2022-12-25T16:12:44.988Z,10.48
2022-12-25T16:15:12.330Z,12.25
2022-12-25T16:17:38.854Z,13.18
2022-12-25T16:20:05.908Z,15.18
2022-12-25T16:22:39.488Z,16.77
2022-12-25T16:25:13.177Z,20.10
2022-12-25T16:27:39.548Z,17.17
2022-12-25T16:30:06.125Z,12.07
2022-12-25T16:32:32.448Z,11.10
2022-12-25T16:34:58.738Z,10.70
2022-12-25T16:37:25.091Z,11.02
2022-12-25T16:39:51.422Z,11.38
2022-12-25T16:42:17.761Z,10.60
2022-12-25T16:44:44.649Z,11.55
2022-12-25T16:47:11.110Z,11.45
2022-12-25T16:49:37.475Z,12.52
2022-12-25T16:52:03.941Z,13.88
2022-12-25T16:54:31.617Z,13.10
2022-12-25T16:56:57.887Z,14.90
2022-12-25T16:59:24.173Z,18.55
2022-12-25T17:01:50.588Z,17.83
2022-12-25T17:04:16.984Z,16.33
2022-12-25T17:06:43.361Z,16.88
2022-12-25T17:09:14.009Z,14.60
2022-12-25T17:11:40.982Z,14.88
2022-12-25T17:14:07.401Z,13.20
2022-12-25T17:16:35.192Z,12.45
2022-12-25T17:19:10.416Z,14.45
2022-12-25T17:21:41.416Z,12.20
2022-12-25T17:24:07.888Z,13.55
2022-12-25T17:26:34.268Z,17.08
2022-12-25T17:29:03.833Z,15.13
2022-12-25T17:31:30.217Z,17.27
2022-12-25T17:33:56.868Z,16.88
2022-12-25T17:36:23.670Z,13.77
2022-12-25T17:38:50.510Z,14.82
2022-12-25T17:41:19.004Z,13.40
2022-12-25T17:43:45.899Z,13.95
2022-12-25T17:46:19.723Z,13.32
2022-12-25T17:48:46.324Z,18.10
2022-12-25T17:51:14.368Z,17.45
2022-12-25T17:53:41.855Z,17.67
2022-12-25T17:56:09.600Z,20.20
2022-12-25T17:58:36.874Z,17.60
2022-12-25T18:01:13.778Z,17.58
2022-12-25T18:03:40.306Z,18.70
2022-12-25T18:06:11.033Z,15.27
2022-12-25T18:08:40.828Z,14.80
2022-12-25T18:11:12.003Z,13.95
2022-12-25T18:13:38.381Z,15.65
2022-12-25T18:16:06.284Z,14.82
2022-12-25T18:18:33.050Z,15.55
2022-12-25T18:20:59.698Z,18.65
2022-12-25T18:23:26.102Z,17.50
2022-12-25T18:25:52.787Z,16.98
2022-12-25T18:28:19.180Z,15.95
2022-12-25T18:30:45.795Z,17.98
2022-12-25T18:33:12.746Z,14.45
2022-12-25T18:35:42.605Z,17.20
2022-12-25T18:38:09.830Z,18.35
2022-12-25T18:40:42.258Z,19.88
2022-12-25T18:43:09.239Z,19.27
2022-12-25T18:45:44.447Z,17.98
2022-12-25T18:48:10.890Z,17.63
2022-12-25T18:50:38.315Z,17.77
2022-12-25T18:53:05.120Z,17.02
2022-12-25T18:55:31.821Z,18.13
2022-12-25T18:57:58.426Z,17.23
2022-12-25T19:00:25.439Z,20.05
2022-12-25T19:02:55.648Z,20.85
2022-12-25T19:05:22.334Z,20.35
2022-12-25T19:07:48.732Z,18.52
2022-12-25T19:10:15.556Z,19.13
2022-12-25T19:12:41.932Z,23.05
2022-12-25T19:15:08.565Z,21.42
2022-12-25T19:17:36.036Z,25.05
2022-12-25T19:20:02.586Z,21.05
2022-12-25T19:22:29.235Z,23.25
2022-12-25T19:24:55.702Z,21.02
2022-12-25T19:27:26.436Z,22.55
2022-12-25T19:29:52.896Z,20.23
2022-12-25T19:32:19.563Z,22.48
2022-12-25T19:34:46.219Z,24.23
2022-12-25T19:37:12.710Z,24.25
2022-12-25T19:39:39.964Z,23.42
2022-12-25T19:42:06.568Z,22.38
2022-12-25T19:44:33.243Z,20.73
2022-12-25T19:46:59.855Z,22.27
2022-12-25T19:49:27.962Z,20.40
2022-12-25T19:51:54.287Z,23.20
2022-12-25T19:54:20.951Z,28.48
2022-12-25T19:56:49.570Z,25.83
2022-12-25T19:59:16.309Z,25.60
2022-12-25T20:01:43.564Z,21.52
2022-12-25T20:04:10.421Z,22.17
2022-12-25T20:06:38.486Z,20.77
2022-12-25T20:09:07.414Z,18.95
2022-12-25T20:11:35.235Z,17.77
2022-12-25T20:14:02.080Z,20.15
2022-12-25T20:16:29.238Z,19.27
2022-12-25T20:18:57.406Z,19.48
2022-12-25T20:21:24.682Z,23.90
2022-12-25T20:23:52.385Z,19.33
2022-12-25T20:26:38.233Z,18.08
2022-12-25T20:29:16.293Z,20.30
2022-12-25T20:32:17.497Z,20.08
2022-12-25T20:35:11.501Z,17.30
2022-12-25T20:41:26.138Z,20.13
2022-12-25T20:44:01.501Z,19.35
2022-12-25T20:46:35.961Z,19.15
2022-12-25T20:52:05.086Z,17.45
2022-12-25T20:54:39.760Z,20.27
2022-12-25T20:57:20.364Z,21.98
2022-12-25T21:02:52.435Z,22.67
2022-12-25T21:05:23.550Z,18.95
2022-12-25T21:10:19.288Z,18.55
2022-12-25T21:12:45.697Z,20.20
2022-12-25T21:15:15.947Z,19.17
2022-12-25T21:17:42.362Z,19.38
2022-12-25T21:20:08.792Z,39.55
2022-12-25T21:22:35.157Z,28.70
2022-12-25T21:25:01.761Z,37.80
2022-12-25T21:27:31.466Z,28.60
2022-12-25T21:29:57.836Z,27.48
2022-12-25T21:32:42.892Z,20.23
2022-12-25T21:35:09.464Z,18.73
2022-12-25T21:37:35.799Z,18.33
2022-12-25T21:40:02.149Z,18.83
2022-12-25T21:42:28.605Z,17.73
2022-12-25T21:44:54.973Z,18.10
2022-12-25T21:47:21.341Z,18.77
2022-12-25T21:50:06.364Z,31.60
2022-12-25T21:52:32.791Z,19.17
2022-12-25T21:54:59.188Z,18.02
2022-12-25T21:57:25.820Z,19.13
2022-12-25T21:59:52.239Z,17.20
2022-12-25T22:02:18.796Z,20.27
2022-12-25T22:04:45.319Z,17.23
2022-12-25T22:07:18.486Z,18.35
2022-12-25T22:09:47.677Z,17.50
2022-12-25T22:12:34.449Z,17.90
2022-12-25T22:15:07.295Z,17.02
2022-12-25T22:17:53.723Z,14.90
2022-12-25T22:20:21.887Z,14.13
2022-12-25T22:22:53.212Z,16.10
2022-12-25T22:25:20.449Z,13.55
2022-12-25T22:27:48.107Z,16.88
2022-12-25T22:30:20.503Z,14.88
2022-12-25T22:32:50.228Z,13.63
2022-12-25T22:35:20.091Z,14.50
2022-12-25T22:37:53.936Z,13.82
2022-12-25T22:40:25.692Z,15.10
2022-12-25T22:43:02.098Z,15.48
2022-12-25T22:45:29.141Z,15.05
2022-12-25T22:47:59.337Z,13.93
2022-12-25T22:50:26.447Z,13.88
2022-12-25T22:52:56.201Z,16.58
2022-12-25T22:55:22.638Z,14.85
2022-12-25T22:57:49.089Z,14.10
2022-12-25T23:00:27.459Z,14.13
2022-12-25T23:03:01.741Z,14.65
2022-12-25T23:05:28.355Z,12.88
2022-12-25T23:07:54.744Z,16.08
2022-12-25T23:10:21.068Z,14.77
2022-12-25T23:13:05.803Z,13.18
2022-12-25T23:15:32.540Z,21.98
2022-12-25T23:18:17.469Z,14.60
2022-12-25T23:21:02.277Z,13.02
2022-12-25T23:23:47.039Z,15.90
2022-12-25T23:26:14.021Z,13.95
2022-12-25T23:29:00.139Z,12.85
2022-12-25T23:31:31.473Z,12.98
2022-12-25T23:33:58.274Z,12.88
2022-12-25T23:36:24.905Z,13.32
2022-12-25T23:38:54.252Z,13.68
2022-12-25T23:41:20.613Z,13.75
2022-12-25T23:43:46.994Z,13.15
2022-12-25T23:46:13.584Z,13.77
2022-12-25T23:48:39.931Z,13.70
2022-12-25T23:51:06.786Z,14.05
2022-12-25T23:53:33.519Z,15.25
2022-12-25T23:56:00.364Z,13.75
2022-12-25T23:58:27.311Z,14.88
